Gulden Bodem, Netherlands
Current Conditions -  °F | °C
As of 3:55 PM on Monday 24 Nov 2014 (Local Time) from EHDL Reporting Station
Broken Clouds Broken Clouds  
Wind Chill: 44°   Ceiling: 24000
Heat Index: 46°   Visibility: 6mi
Dew Point: 43°   Wind: 5mph
Humidity: 87%   Direction: 250°WSW
Pressure: 30.27"   Gusts: NA
Location:  51.99°N, 5.89°E
Report Text: EHDL 241455Z AUTO 25004KT 9999 FEW040 BKN240 08/06 Q1025 BLU
Loading
Personal Weather Stations






























Interactive Weather Map New forecast layout! Learn more

10-Day Weather Forecast

Advertisements
Track Severe Weather on mobile